Terminal Aerodrome Forecast
Issued by NWS

Home | Current Version | Previous Version | Text Only | Print | Product List | Glossary Off
Versions: 1 2 3 4 5 6 7 8 9 10 11 12 13 14 15 16 17 18 19 20 21 22 23 24 25 26 27 28 29 30 31 32 33 34 35 36 37 38 39 40 41 42 43 44 45 46 47 48 49 50

000
FTUS43 KGRB 150538
TAFRHI
TAF
KRHI 150538Z 1506/1606 VRB03KT 2SM BR OVC003
      TEMPO 1506/1509 1/2SM FG VV002
     FM150900 VRB03KT 1/4SM FG VV002
      TEMPO 1510/1513 1SM BR BKN006
     FM151300 VRB03KT 6SM BR BKN010
     FM151500 07004KT P6SM SCT070
     FM152300 13004KT P6SM SCT150=

USA.gov is the U.S. government's official web portal to all federal, state and local government web resources and services.